Welcome to Northern Hawkes Bay. New Zealand.
PWS Header
      nz Flag



Hit Counter


W3C Valid W3C Valid logo


    Wairoa

Select any of the Stations below to visit their websites.










Historic Data from Weather Underground
Select the location of interest below. Wairoa is the default. Please have patience, this Data is slow to load in.
Northern Hawkes Bay Historical Data
Daily Summary for October 14, 2017 Units:  Metric    English   Both
« Previous Day
Next Day »
Daily Weekly Monthly Yearly Custom
  High: Low: Average:
Temperature: 23.8 °C 9.7 °C 16.4 °C
Dew Point: 12.7 °C 4.3 °C 9.7 °C
Humidity: 95% 29% 67%
Wind Speed: 20.9km/h 0.0km/h 3.6km/h
Wind Gust: 29.4km/h - -
Wind- - WSW
Pressure: 1012.4 hPa 1008.7 hPa -
Precipitation: 0.0 mm    
Historical Graphs
 
 
Tabular Data for October 14, 2017
Time Temperature Dew Point Pressure Wind Wind Speed Wind Gust Humidity Rainfall Rate (Hourly) solar
00:02 16.6 °C 11.1 °C 1009.0 hPa NW 11.1 km/h 20.9 km/h 70% 0.0 mm 0 W/m2
00:07 16.6 °C 11.1 °C 1009.4 hPa NNW 3.5 km/h 20.9 km/h 70% 0.0 mm 0 W/m2
00:12 16.4 °C 11.1 °C 1009.0 hPa North 12.2 km/h 19.5 km/h 71% 0.0 mm 0 W/m2
00:17 16.4 °C 11.1 °C 1008.7 hPa NNW 20.9 km/h 29.4 km/h 71% 0.0 mm 0 W/m2
00:22 16.6 °C 11.1 °C 1009.0 hPa NNW 12.2 km/h 29.4 km/h 70% 0.0 mm 0 W/m2
00:27 16.6 °C 11.1 °C 1009.4 hPa NNW 1.1 km/h 27.0 km/h 70% 0.0 mm 0 W/m2
00:32 16.4 °C 10.9 °C 1009.4 hPa NNW 3.5 km/h 15.8 km/h 70% 0.0 mm 0 W/m2
00:37 16.3 °C 11.1 °C 1009.4 hPa Calm   7.2 km/h 71% 0.0 mm 0 W/m2
00:42 16.1 °C 11.1 °C 1009.4 hPa North 3.5 km/h 8.7 km/h 72% 0.0 mm 0 W/m2
00:47 16.0 °C 11.2 °C 1009.4 hPa North 8.7 km/h 14.8 km/h 73% 0.0 mm 0 W/m2
00:52 16.0 °C 11.2 °C 1009.0 hPa NNW 7.2 km/h 14.8 km/h 73% 0.0 mm 0 W/m2
00:57 15.9 °C 11.3 °C 1009.4 hPa Calm   14.8 km/h 74% 0.0 mm 0 W/m2
01:02 15.8 °C 11.2 °C 1009.4 hPa NNE 2.6 km/h 11.1 km/h 74% 0.0 mm 0 W/m2
01:22 15.6 °C 11.2 °C 1009.4 hPa NNW 3.5 km/h 6.1 km/h 75% 0.0 mm 0 W/m2
01:27 15.6 °C 11.2 °C 1009.0 hPa NNW 7.2 km/h 13.4 km/h 75% 0.0 mm 0 W/m2
01:32 15.5 °C 11.1 °C 1009.0 hPa NNW 8.7 km/h 17.2 km/h 75% 0.0 mm 0 W/m2
01:37 15.5 °C 11.1 °C 1009.0 hPa NW 8.7 km/h 17.2 km/h 75% 0.0 mm 0 W/m2
01:42 15.6 °C 11.2 °C 1009.0 hPa NNW 7.2 km/h 14.8 km/h 75% 0.0 mm 0 W/m2
01:47 15.5 °C 11.1 °C 1009.0 hPa NNW 6.1 km/h 14.8 km/h 75% 0.0 mm 0 W/m2
01:52 15.6 °C 11.2 °C 1009.0 hPa NW 6.1 km/h 14.8 km/h 75% 0.0 mm 0 W/m2
01:57 15.7 °C 11.1 °C 1009.4 hPa NNW 1.1 km/h 14.8 km/h 74% 0.0 mm 0 W/m2
02:02 15.5 °C 10.9 °C 1009.4 hPa North 1.1 km/h 14.8 km/h 74% 0.0 mm 0 W/m2
02:07 15.6 °C 11.0 °C 1009.0 hPa NNE 7.2 km/h 11.1 km/h 74% 0.0 mm 0 W/m2
02:12 15.8 °C 11.2 °C 1009.4 hPa North 5.0 km/h 11.1 km/h 74% 0.0 mm 0 W/m2
02:17 15.5 °C 10.9 °C 1008.7 hPa NNW 3.5 km/h 11.1 km/h 74% 0.0 mm 0 W/m2
02:22 15.2 °C 10.8 °C 1009.0 hPa NNW 3.5 km/h 11.1 km/h 75% 0.0 mm 0 W/m2
02:27 15.0 °C 10.8 °C 1009.0 hPa North 2.6 km/h 11.1 km/h 76% 0.0 mm 0 W/m2
02:32 14.9 °C 10.9 °C 1009.4 hPa NNE 1.1 km/h 7.2 km/h 77% 0.0 mm 0 W/m2
02:37 14.7 °C 10.9 °C 1009.4 hPa NNE 3.5 km/h 7.2 km/h 78% 0.0 mm 0 W/m2
02:42 14.7 °C 10.9 °C 1009.4 hPa North 5.0 km/h 8.7 km/h 78% 0.0 mm 0 W/m2
02:47 14.7 °C 10.9 °C 1009.4 hPa North 5.0 km/h 8.7 km/h 78% 0.0 mm 0 W/m2
02:52 14.9 °C 11.1 °C 1009.0 hPa North 9.7 km/h 12.2 km/h 78% 0.0 mm 0 W/m2
02:57 15.0 °C 10.8 °C 1009.0 hPa North 6.1 km/h 12.2 km/h 76% 0.0 mm 0 W/m2
03:02 15.3 °C 10.9 °C 1009.0 hPa NNW 6.1 km/h 13.4 km/h 75% 0.0 mm 0 W/m2
03:07 15.4 °C 10.8 °C 1009.0 hPa NNW 5.0 km/h 13.4 km/h 74% 0.0 mm 0 W/m2
03:12 15.3 °C 10.7 °C 1008.7 hPa North 6.1 km/h 13.4 km/h 74% 0.0 mm 0 W/m2
03:17 15.3 °C 10.7 °C 1008.7 hPa North 5.0 km/h 13.4 km/h 74% 0.0 mm 0 W/m2
03:22 15.2 °C 10.6 °C 1008.7 hPa NNE 3.5 km/h 11.1 km/h 74% 0.0 mm 0 W/m2
03:27 15.0 °C 10.4 °C 1009.0 hPa North 5.0 km/h 11.1 km/h 74% 0.0 mm 0 W/m2
03:32 14.8 °C 10.4 °C 1008.7 hPa North 5.0 km/h 7.2 km/h 75% 0.0 mm 0 W/m2
03:37 14.5 °C 10.3 °C 1008.7 hPa NNW 6.1 km/h 7.2 km/h 76% 0.0 mm 0 W/m2
03:42 14.2 °C 10.1 °C 1009.0 hPa NNW 3.5 km/h 8.7 km/h 76% 0.0 mm 0 W/m2
03:47 13.9 °C 10.1 °C 1009.0 hPa NNW 1.1 km/h 8.7 km/h 78% 0.0 mm 0 W/m2
03:52 13.6 °C 9.8 °C 1009.0 hPa Calm   7.2 km/h 78% 0.0 mm 0 W/m2
03:57 13.5 °C 9.9 °C 1009.0 hPa Calm   3.5 km/h 79% 0.0 mm 0 W/m2
04:02 13.0 °C 9.4 °C 1009.0 hPa Calm   2.6 km/h 79% 0.0 mm 0 W/m2
04:07 12.8 °C 9.4 °C 1009.0 hPa WNW 2.6 km/h 3.5 km/h 80% 0.0 mm 0 W/m2
04:12 12.6 °C 9.4 °C 1009.0 hPa Calm   3.5 km/h 81% 0.0 mm 0 W/m2
04:17 12.3 °C 9.1 °C 1009.0 hPa Calm   3.5 km/h 81% 0.0 mm 0 W/m2
04:22 11.9 °C 8.9 °C 1009.0 hPa Calm     82% 0.0 mm 0 W/m2
04:27 11.7 °C 9.1 °C 1009.4 hPa Calm   2.6 km/h 84% 0.0 mm 0 W/m2
04:32 11.6 °C 9.2 °C 1009.0 hPa North 1.1 km/h 3.5 km/h 85% 0.0 mm 0 W/m2
04:37 11.4 °C 9.2 °C 1009.0 hPa Calm   3.5 km/h 86% 0.0 mm 0 W/m2
04:42 11.3 °C 9.2 °C 1009.0 hPa NW 2.6 km/h 3.5 km/h 87% 0.0 mm 0 W/m2
04:47 11.2 °C 9.3 °C 1009.4 hPa NW 2.6 km/h 5.0 km/h 88% 0.0 mm 0 W/m2
04:52 11.1 °C 9.3 °C 1009.4 hPa NW 2.6 km/h 5.0 km/h 89% 0.0 mm 0 W/m2
04:57 11.0 °C 9.3 °C 1009.4 hPa NW 1.1 km/h 5.0 km/h 89% 0.0 mm 0 W/m2
05:02 10.9 °C 9.3 °C 1009.4 hPa NNW 1.1 km/h 5.0 km/h 90% 0.0 mm 0 W/m2
05:07 10.8 °C 9.4 °C 1009.4 hPa NNW 3.5 km/h 5.0 km/h 91% 0.0 mm 0 W/m2
05:12 10.7 °C 9.4 °C 1009.4 hPa NW 2.6 km/h 6.1 km/h 92% 0.0 mm 0 W/m2
05:17 10.7 °C 9.4 °C 1009.4 hPa NW 1.1 km/h 6.1 km/h 92% 0.0 mm 0 W/m2
05:22 10.5 °C 9.3 °C 1009.4 hPa NW 5.0 km/h 7.2 km/h 92% 0.0 mm 0 W/m2
05:27 10.5 °C 9.4 °C 1009.4 hPa NNW 3.5 km/h 7.2 km/h 93% 0.0 mm 0 W/m2
05:32 10.4 °C 9.3 °C 1009.4 hPa NW 3.5 km/h 7.2 km/h 93% 0.0 mm 0 W/m2
05:37 10.3 °C 9.2 °C 1009.4 hPa NW 3.5 km/h 6.1 km/h 93% 0.0 mm 0 W/m2
05:42 10.3 °C 9.2 °C 1009.4 hPa NW 3.5 km/h 8.7 km/h 93% 0.0 mm 0 W/m2
05:47 10.4 °C 9.3 °C 1009.4 hPa NW 5.0 km/h 8.7 km/h 93% 0.0 mm 0 W/m2
05:52 10.4 °C 9.3 °C 1009.4 hPa NNW 5.0 km/h 8.7 km/h 93% 0.0 mm 0 W/m2
05:57 10.4 °C 9.3 °C 1009.4 hPa NNW 5.0 km/h 8.7 km/h 93% 0.0 mm 0 W/m2
06:02 10.4 °C 9.3 °C 1009.7 hPa NNW 5.0 km/h 7.2 km/h 93% 0.0 mm 0 W/m2
06:07 10.3 °C 9.1 °C 1009.7 hPa NW 2.6 km/h 7.2 km/h 92% 0.0 mm 0 W/m2
06:12 10.2 °C 8.9 °C 1009.7 hPa NW 2.6 km/h 6.1 km/h 92% 0.0 mm 0 W/m2
06:17 10.1 °C 8.9 °C 1009.7 hPa NNW 3.5 km/h 6.1 km/h 92% 0.0 mm 0 W/m2
06:22 10.0 °C 8.8 °C 1010.0 hPa NW 2.6 km/h 5.0 km/h 92% 0.0 mm 0 W/m2
06:27 9.8 °C 8.9 °C 1010.0 hPa NW 2.6 km/h 5.0 km/h 94% 0.0 mm 0 W/m2
06:32 9.7 °C 8.8 °C 1010.0 hPa NNW 2.6 km/h 3.5 km/h 94% 0.0 mm 3 W/m2
06:37 9.7 °C 8.8 °C 1010.0 hPa NNW 2.6 km/h 3.5 km/h 94% 0.0 mm 5 W/m2
06:42 9.7 °C 8.8 °C 1010.4 hPa NW 2.6 km/h 5.0 km/h 94% 0.0 mm 8 W/m2
06:47 9.7 °C 8.8 °C 1010.4 hPa Calm   5.0 km/h 94% 0.0 mm 12 W/m2
06:52 9.9 °C 9.1 °C 1010.4 hPa NW 2.6 km/h 5.0 km/h 95% 0.0 mm 54 W/m2
06:57 10.3 °C 9.4 °C 1010.0 hPa NW 3.5 km/h 5.0 km/h 94% 0.0 mm 68 W/m2
07:02 10.9 °C 9.7 °C 1010.4 hPa NW 3.5 km/h 5.0 km/h 92% 0.0 mm 80 W/m2
07:07 11.2 °C 9.4 °C 1010.0 hPa NW 3.5 km/h 6.1 km/h 89% 0.0 mm 94 W/m2
07:12 11.6 °C 9.5 °C 1010.4 hPa NW 3.5 km/h 7.2 km/h 87% 0.0 mm 103 W/m2
07:17 11.9 °C 9.6 °C 1010.7 hPa NW 3.5 km/h 7.2 km/h 86% 0.0 mm 111 W/m2
07:22 12.4 °C 9.8 °C 1010.7 hPa NW 3.5 km/h 6.1 km/h 84% 0.0 mm 119 W/m2
07:27 13.2 °C 10.0 °C 1010.7 hPa NNW 6.1 km/h 9.7 km/h 81% 0.0 mm 125 W/m2
07:29 13.4 °C 9.8 °C 1010.7 hPa NNW 5.0 km/h 11.1 km/h 79% 0.0 mm 128 W/m2
07:34 13.8 °C 9.8 °C 1010.7 hPa NNW 3.5 km/h 11.1 km/h 77% 0.0 mm 135 W/m2
07:39 14.0 °C 9.7 °C 1010.7 hPa NW 7.2 km/h 11.1 km/h 75% 0.0 mm 141 W/m2
07:44 14.1 °C 9.7 °C 1010.7 hPa NNW 3.5 km/h 11.1 km/h 75% 0.0 mm 147 W/m2
07:50 14.4 °C 10.1 °C 1011.1 hPa NNW 6.1 km/h 11.1 km/h 75% 0.0 mm 152 W/m2
07:55 14.7 °C 10.1 °C 1011.1 hPa NNW 5.0 km/h 12.2 km/h 74% 0.0 mm 158 W/m2
08:00 14.9 °C 9.7 °C 1011.1 hPa North 2.6 km/h 12.2 km/h 71% 0.0 mm 163 W/m2
08:05 15.2 °C 9.8 °C 1011.1 hPa North 5.0 km/h 12.2 km/h 70% 0.0 mm 169 W/m2
08:09 15.4 °C 9.6 °C 1011.4 hPa NNW 5.0 km/h 12.2 km/h 68% 0.0 mm 177 W/m2
08:14 15.6 °C 9.5 °C 1011.4 hPa North 3.5 km/h 12.2 km/h 67% 0.0 mm 184 W/m2
08:19 16.1 °C 9.5 °C 1011.4 hPa North 2.6 km/h 12.2 km/h 65% 0.0 mm 193 W/m2
08:25 16.3 °C 9.5 °C 1011.4 hPa North 3.5 km/h 12.2 km/h 64% 0.0 mm 203 W/m2
08:30 16.4 °C 9.3 °C 1011.7 hPa NNW 2.6 km/h 13.4 km/h 63% 0.0 mm 211 W/m2
08:35 16.5 °C 9.4 °C 1011.7 hPa NNW 8.7 km/h 13.4 km/h 63% 0.0 mm 221 W/m2
08:40 16.5 °C 9.4 °C 1011.7 hPa NNW 9.7 km/h 13.4 km/h 63% 0.0 mm 230 W/m2
08:45 16.6 °C 9.8 °C 1012.1 hPa NNW 7.2 km/h 13.4 km/h 64% 0.0 mm 241 W/m2
08:50 17.1 °C 9.8 °C 1012.1 hPa North 7.2 km/h 13.4 km/h 62% 0.0 mm 251 W/m2
08:55 16.8 °C 9.5 °C 1012.1 hPa North 3.5 km/h 13.4 km/h 62% 0.0 mm 260 W/m2
09:00 17.3 °C 9.9 °C 1012.1 hPa NNW 6.1 km/h 13.4 km/h 62% 0.0 mm 271 W/m2
09:05 17.6 °C 9.8 °C 1012.1 hPa NNW 2.6 km/h 9.7 km/h 60% 0.0 mm 283 W/m2
09:10 17.8 °C 9.2 °C 1012.4 hPa NNW 3.5 km/h 8.7 km/h 57% 0.0 mm 292 W/m2
09:15 18.1 °C 9.4 °C 1012.1 hPa NNW 6.1 km/h 8.7 km/h 57% 0.0 mm 304 W/m2
09:20 18.2 °C 9.6 °C 1012.1 hPa NNW 5.0 km/h 8.7 km/h 57% 0.0 mm 314 W/m2
09:25 18.6 °C 9.7 °C 1012.4 hPa NNW 3.5 km/h 11.1 km/h 56% 0.0 mm 326 W/m2
09:30 18.9 °C 9.7 °C 1012.1 hPa North 3.5 km/h 11.1 km/h 55% 0.0 mm 338 W/m2
09:35 19.0 °C 8.3 °C 1012.4 hPa NNW 3.5 km/h 9.7 km/h 50% 0.0 mm 351 W/m2
09:40 19.0 °C 8.9 °C 1012.1 hPa NNW 3.5 km/h 9.7 km/h 52% 0.0 mm 361 W/m2
09:45 19.6 °C 9.5 °C 1012.4 hPa NNE 1.1 km/h 8.7 km/h 52% 0.0 mm 374 W/m2
09:50 19.9 °C 8.9 °C 1012.1 hPa North 1.1 km/h 7.2 km/h 49% 0.0 mm 387 W/m2
09:55 20.2 °C 8.8 °C 1012.1 hPa NNW 1.1 km/h 7.2 km/h 48% 0.0 mm 399 W/m2
10:00 20.9 °C 8.6 °C 1012.1 hPa West 1.1 km/h 5.0 km/h 45% 0.0 mm 415 W/m2
10:05 20.7 °C 9.3 °C 1012.1 hPa SSW 9.7 km/h 14.8 km/h 48% 0.0 mm 425 W/m2
10:10 19.3 °C 10.1 °C 1012.4 hPa SSW 7.2 km/h 14.8 km/h 55% 0.0 mm 433 W/m2
10:15 19.0 °C 9.8 °C 1012.1 hPa SSW 5.0 km/h 12.2 km/h 55% 0.0 mm 443 W/m2
10:20 19.0 °C 9.5 °C 1012.1 hPa SW 5.0 km/h 11.1 km/h 54% 0.0 mm 455 W/m2
10:25 19.2 °C 9.7 °C 1012.1 hPa SSW 5.0 km/h 11.1 km/h 54% 0.0 mm 432 W/m2
10:30 18.7 °C 9.5 °C 1012.4 hPa South 11.1 km/h 14.8 km/h 55% 0.0 mm 472 W/m2
10:35 18.0 °C 9.6 °C 1012.4 hPa South 7.2 km/h 14.8 km/h 58% 0.0 mm 481 W/m2
10:40 18.6 °C 10.9 °C 1012.4 hPa South 6.1 km/h 13.4 km/h 61% 0.0 mm 367 W/m2
10:45 18.2 °C 11.1 °C 1012.4 hPa SSW 5.0 km/h 14.8 km/h 63% 0.0 mm 501 W/m2
10:50 18.1 °C 9.9 °C 1012.4 hPa SSW 3.5 km/h 14.8 km/h 59% 0.0 mm 507 W/m2
10:55 18.3 °C 10.4 °C 1012.4 hPa SSW 7.2 km/h 12.2 km/h 60% 0.0 mm 528 W/m2
11:00 17.9 °C 10.3 °C 1012.1 hPa South 5.0 km/h 13.4 km/h 61% 0.0 mm 357 W/m2
11:05 17.8 °C 9.9 °C 1012.1 hPa South 6.1 km/h 13.4 km/h 60% 0.0 mm 548 W/m2
11:10 17.8 °C 10.2 °C 1012.1 hPa SSE 8.7 km/h 12.2 km/h 61% 0.0 mm 401 W/m2
11:15 18.1 °C 10.7 °C 1012.1 hPa SSE 3.5 km/h 12.2 km/h 62% 0.0 mm 577 W/m2
11:20 18.3 °C 10.7 °C 1012.1 hPa South 5.0 km/h 12.2 km/h 61% 0.0 mm 590 W/m2
11:25 18.5 °C 10.1 °C 1011.7 hPa South 8.7 km/h 12.2 km/h 58% 0.0 mm 605 W/m2
11:30 18.4 °C 10.3 °C 1011.7 hPa South 3.5 km/h 12.2 km/h 59% 0.0 mm 614 W/m2
11:35 18.6 °C 9.9 °C 1011.7 hPa South 9.7 km/h 12.2 km/h 57% 0.0 mm 626 W/m2
11:52 18.5 °C 9.8 °C 1011.4 hPa South 5.0 km/h 14.8 km/h 57% 0.0 mm 659 W/m2
11:57 18.5 °C 8.4 °C 1011.4 hPa South 8.7 km/h 12.2 km/h 52% 0.0 mm 668 W/m2
12:02 18.4 °C 8.7 °C 1011.4 hPa South 8.7 km/h 12.2 km/h 53% 0.0 mm 677 W/m2
12:07 18.5 °C 9.6 °C 1011.4 hPa South 6.1 km/h 13.4 km/h 56% 0.0 mm 687 W/m2
12:12 18.5 °C 10.3 °C 1011.4 hPa South 7.2 km/h 13.4 km/h 59% 0.0 mm 696 W/m2
12:17 18.5 °C 9.8 °C 1011.4 hPa South 7.2 km/h 13.4 km/h 57% 0.0 mm 706 W/m2
12:22 18.8 °C 9.6 °C 1011.4 hPa South 8.7 km/h 12.2 km/h 55% 0.0 mm 719 W/m2
12:27 18.8 °C 9.8 °C 1011.1 hPa South 2.6 km/h 12.2 km/h 56% 0.0 mm 733 W/m2
12:32 19.0 °C 9.5 °C 1011.1 hPa South 6.1 km/h 12.2 km/h 54% 0.0 mm 746 W/m2
12:37 19.3 °C 9.8 °C 1011.1 hPa SSE 6.1 km/h 11.1 km/h 54% 0.0 mm 753 W/m2
12:42 19.0 °C 9.5 °C 1011.1 hPa South 2.6 km/h 11.1 km/h 54% 0.0 mm 755 W/m2
12:47 19.5 °C 10.2 °C 1010.7 hPa South 3.5 km/h 11.1 km/h 55% 0.0 mm 763 W/m2
12:52 19.5 °C 9.9 °C 1010.7 hPa South 6.1 km/h 12.2 km/h 54% 0.0 mm 765 W/m2
12:57 19.4 °C 10.1 °C 1010.7 hPa South 2.6 km/h 12.2 km/h 55% 0.0 mm 765 W/m2
13:02 19.8 °C 10.8 °C 1010.7 hPa SSE 9.7 km/h 12.2 km/h 56% 0.0 mm 768 W/m2
13:07 19.3 °C 9.8 °C 1011.1 hPa SSE 8.7 km/h 13.4 km/h 54% 0.0 mm 762 W/m2
13:12 19.1 °C 9.8 °C 1010.7 hPa South 8.7 km/h 15.8 km/h 55% 0.0 mm 757 W/m2
13:17 19.1 °C 9.8 °C 1011.1 hPa South 9.7 km/h 17.2 km/h 55% 0.0 mm 753 W/m2
13:22 19.3 °C 10.6 °C 1011.1 hPa SSE 6.1 km/h 17.2 km/h 57% 0.0 mm 752 W/m2
13:27 19.5 °C 10.2 °C 1011.1 hPa South 7.2 km/h 17.2 km/h 55% 0.0 mm 748 W/m2
13:32 19.5 °C 10.2 °C 1010.7 hPa South 8.7 km/h 13.4 km/h 55% 0.0 mm 744 W/m2
13:37 19.5 °C 10.2 °C 1010.7 hPa South 7.2 km/h 14.8 km/h 55% 0.0 mm 736 W/m2
13:42 19.5 °C 10.2 °C 1010.7 hPa South 5.0 km/h 15.8 km/h 55% 0.0 mm 726 W/m2
13:47 19.8 °C 10.5 °C 1010.7 hPa South 7.2 km/h 15.8 km/h 55% 0.0 mm 722 W/m2
13:52 19.9 °C 10.6 °C 1010.7 hPa South 8.7 km/h 13.4 km/h 55% 0.0 mm 716 W/m2
13:57 20.0 °C 10.4 °C 1011.1 hPa South 11.1 km/h 19.5 km/h 54% 0.0 mm 706 W/m2
14:02 20.1 °C 10.8 °C 1010.7 hPa South 5.0 km/h 19.5 km/h 55% 0.0 mm 603 W/m2
14:07 20.2 °C 10.9 °C 1010.7 hPa South 6.1 km/h 19.5 km/h 55% 0.0 mm 465 W/m2
14:12 20.3 °C 10.4 °C 1010.7 hPa South 5.0 km/h 12.2 km/h 53% 0.0 mm 652 W/m2
14:17 20.8 °C 10.9 °C 1010.7 hPa South 3.5 km/h 12.2 km/h 53% 0.0 mm 671 W/m2
14:22 20.8 °C 8.4 °C 1010.7 hPa SSE 5.0 km/h 18.3 km/h 45% 0.0 mm 451 W/m2
14:27 20.9 °C 9.2 °C 1010.4 hPa SSE 6.1 km/h 18.3 km/h 47% 0.0 mm 649 W/m2
14:32 21.2 °C 9.8 °C 1010.4 hPa South 2.6 km/h 13.4 km/h 48% 0.0 mm 639 W/m2
14:37 21.6 °C 10.1 °C 1010.4 hPa SSE 6.1 km/h 11.1 km/h 48% 0.0 mm 630 W/m2
14:42 22.5 °C 10.3 °C 1010.4 hPa South 2.6 km/h 11.1 km/h 46% 0.0 mm 618 W/m2
14:47 22.5 °C 8.6 °C 1010.4 hPa South 5.0 km/h 9.7 km/h 41% 0.0 mm 576 W/m2
14:52 22.5 °C 7.9 °C 1010.0 hPa SSE 5.0 km/h 11.1 km/h 39% 0.0 mm 513 W/m2
14:57 22.6 °C 8.7 °C 1010.4 hPa Calm   11.1 km/h 41% 0.0 mm 466 W/m2
15:02 22.8 °C 7.4 °C 1010.0 hPa Calm   11.1 km/h 37% 0.0 mm 570 W/m2
15:07 23.0 °C 6.3 °C 1010.0 hPa SE 2.6 km/h 11.1 km/h 34% 0.0 mm 548 W/m2
15:12 23.2 °C 9.6 °C 1010.0 hPa SE 3.5 km/h 11.1 km/h 42% 0.0 mm 542 W/m2
15:17 23.0 °C 8.7 °C 1010.0 hPa SSE 6.1 km/h 11.1 km/h 40% 0.0 mm 526 W/m2
15:22 22.5 °C 8.6 °C 1010.0 hPa SSE 1.1 km/h 11.1 km/h 41% 0.0 mm 394 W/m2
15:27 23.0 °C 9.1 °C 1010.0 hPa SSE 2.6 km/h 11.1 km/h 41% 0.0 mm 504 W/m2
15:32 23.0 °C 9.1 °C 1010.0 hPa SSE 2.6 km/h 9.7 km/h 41% 0.0 mm 489 W/m2
15:37 23.2 °C 7.3 °C 1010.0 hPa SSE 1.1 km/h 12.2 km/h 36% 0.0 mm 475 W/m2
15:42 23.6 °C 7.3 °C 1010.0 hPa SE 2.6 km/h 12.2 km/h 35% 0.0 mm 467 W/m2
15:47 23.8 °C 8.3 °C 1010.0 hPa SE 6.1 km/h 13.4 km/h 37% 0.0 mm 120 W/m2
15:52 23.2 °C 9.6 °C 1010.0 hPa SSE 8.7 km/h 14.8 km/h 42% 0.0 mm 381 W/m2
15:57 22.0 °C 9.2 °C 1010.0 hPa SSE 3.5 km/h 14.8 km/h 44% 0.0 mm 79 W/m2
16:02 21.9 °C 11.9 °C 1010.0 hPa SE 11.1 km/h 14.8 km/h 53% 0.0 mm 409 W/m2
16:07 21.5 °C 12.4 °C 1010.0 hPa SE 5.0 km/h 14.8 km/h 56% 0.0 mm 402 W/m2
16:14 21.3 °C 12.7 °C 1010.0 hPa SSE 6.1 km/h 15.8 km/h 58% 0.0 mm 385 W/m2
16:19 21.5 °C 12.6 °C 1010.0 hPa SSE 8.7 km/h 15.8 km/h 57% 0.0 mm 377 W/m2
16:23 21.5 °C 12.6 °C 1009.7 hPa SSE 3.5 km/h 13.4 km/h 57% 0.0 mm 358 W/m2
16:28 22.0 °C 12.6 °C 1010.0 hPa SSE 2.6 km/h 13.4 km/h 55% 0.0 mm 357 W/m2
16:44 22.4 °C 11.8 °C 1010.0 hPa SSE 3.5 km/h 12.2 km/h 51% 0.0 mm 321 W/m2
16:49 22.0 °C 12.0 °C 1009.7 hPa SSE 3.5 km/h 12.2 km/h 53% 0.0 mm 308 W/m2
16:54 22.1 °C 12.1 °C 1009.7 hPa SE 3.5 km/h 12.2 km/h 53% 0.0 mm 295 W/m2
16:59 22.2 °C 10.7 °C 1010.0 hPa SE 3.5 km/h 9.7 km/h 48% 0.0 mm 283 W/m2
17:04 22.3 °C 11.7 °C 1010.0 hPa SE 6.1 km/h 11.1 km/h 51% 0.0 mm 271 W/m2
17:09 22.2 °C 11.0 °C 1010.0 hPa SSE 1.1 km/h 11.1 km/h 49% 0.0 mm 258 W/m2
17:14 22.7 °C 11.4 °C 1010.0 hPa Calm   9.7 km/h 49% 0.0 mm 247 W/m2
17:19 23.4 °C 7.1 °C 1010.0 hPa SE 6.1 km/h 8.7 km/h 35% 0.0 mm 235 W/m2
17:24 23.2 °C 4.7 °C 1010.0 hPa Calm   8.7 km/h 30% 0.0 mm 223 W/m2
17:29 23.6 °C 4.6 °C 1010.0 hPa East 3.5 km/h 8.7 km/h 29% 0.0 mm 211 W/m2
17:34 23.3 °C 5.7 °C 1009.7 hPa ESE 3.5 km/h 8.7 km/h 32% 0.0 mm 199 W/m2
17:39 22.8 °C 5.7 °C 1009.7 hPa ESE 3.5 km/h 9.7 km/h 33% 0.0 mm 187 W/m2
17:44 23.2 °C 7.3 °C 1009.7 hPa East 1.1 km/h 9.7 km/h 36% 0.0 mm 174 W/m2
17:49 23.3 °C 7.0 °C 1009.7 hPa East 3.5 km/h 7.2 km/h 35% 0.0 mm 162 W/m2
17:54 22.6 °C 6.4 °C 1009.7 hPa East 5.0 km/h 8.7 km/h 35% 0.0 mm 50 W/m2
17:59 21.4 °C 6.1 °C 1009.7 hPa Calm   8.7 km/h 37% 0.0 mm 42 W/m2
18:04 21.4 °C 6.5 °C 1009.7 hPa Calm   8.7 km/h 38% 0.0 mm 44 W/m2
18:09 21.3 °C 6.1 °C 1009.7 hPa Calm   5.0 km/h 37% 0.0 mm 69 W/m2
18:14 21.8 °C 6.5 °C 1009.7 hPa Calm   5.0 km/h 37% 0.0 mm 41 W/m2
18:20 21.2 °C 4.3 °C 1009.7 hPa Calm   6.1 km/h 33% 0.0 mm 34 W/m2
18:25 20.9 °C 5.7 °C 1009.7 hPa Calm   6.1 km/h 37% 0.0 mm 34 W/m2
18:30 20.9 °C 6.4 °C 1009.7 hPa East 1.1 km/h 3.5 km/h 39% 0.0 mm 35 W/m2
18:35 21.2 °C 6.7 °C 1009.7 hPa Calm   3.5 km/h 39% 0.0 mm 46 W/m2
18:40 21.8 °C 8.0 °C 1009.7 hPa Calm   3.5 km/h 41% 0.0 mm 28 W/m2
18:45 21.1 °C 8.1 °C 1009.7 hPa Calm   3.5 km/h 43% 0.0 mm 28 W/m2
18:50 20.3 °C 9.8 °C 1010.0 hPa Calm   3.5 km/h 51% 0.0 mm 26 W/m2
18:55 19.7 °C 10.4 °C 1010.0 hPa Calm   3.5 km/h 55% 0.0 mm 21 W/m2
19:00 19.4 °C 10.1 °C 1010.0 hPa Calm     55% 0.0 mm 18 W/m2
19:05 19.1 °C 10.1 °C 1009.7 hPa Calm     56% 0.0 mm 13 W/m2
19:11 18.7 °C 10.8 °C 1010.0 hPa Calm     60% 0.0 mm 9 W/m2
19:16 18.1 °C 10.7 °C 1009.7 hPa Calm     62% 0.0 mm 5 W/m2
19:21 17.6 °C 10.0 °C 1009.7 hPa Calm     61% 0.0 mm 2 W/m2
19:26 17.1 °C 9.5 °C 1010.0 hPa Calm     61% 0.0 mm 0 W/m2
19:31 16.8 °C 9.7 °C 1009.7 hPa Calm     63% 0.0 mm 0 W/m2
19:36 16.7 °C 10.3 °C 1009.7 hPa Calm     66% 0.0 mm 0 W/m2
19:42 16.0 °C 10.6 °C 1010.0 hPa Calm   5.0 km/h 70% 0.0 mm 0 W/m2
20:03 15.0 °C 10.8 °C 1010.0 hPa Calm     76% 0.0 mm 0 W/m2
20:08 14.9 °C 11.1 °C 1010.0 hPa Calm     78% 0.0 mm 0 W/m2
20:13 14.7 °C 11.1 °C 1010.0 hPa Calm     79% 0.0 mm 0 W/m2
20:18 14.5 °C 11.1 °C 1010.0 hPa Calm     80% 0.0 mm 0 W/m2
20:23 14.4 °C 11.4 °C 1010.0 hPa Calm     82% 0.0 mm 0 W/m2
20:28 14.3 °C 11.6 °C 1010.0 hPa Calm     84% 0.0 mm 0 W/m2
20:33 14.0 °C 11.3 °C 1010.0 hPa Calm     84% 0.0 mm 0 W/m2
20:38 13.7 °C 11.2 °C 1010.0 hPa Calm     85% 0.0 mm 0 W/m2
20:43 13.6 °C 11.1 °C 1010.0 hPa Calm     85% 0.0 mm 0 W/m2
20:48 13.6 °C 11.1 °C 1010.0 hPa Calm     85% 0.0 mm 0 W/m2
20:53 13.4 °C 11.1 °C 1010.0 hPa Calm     86% 0.0 mm 0 W/m2
20:58 13.3 °C 11.0 °C 1010.0 hPa Calm   1.1 km/h 86% 0.0 mm 0 W/m2
21:03 13.2 °C 10.7 °C 1010.0 hPa Calm   1.1 km/h 85% 0.0 mm 0 W/m2
21:08 13.1 °C 10.4 °C 1010.0 hPa Calm     84% 0.0 mm 0 W/m2
21:13 13.0 °C 10.4 °C 1010.0 hPa Calm   1.1 km/h 84% 0.0 mm 0 W/m2
21:18 12.9 °C 10.1 °C 1010.4 hPa Calm   1.1 km/h 83% 0.0 mm 0 W/m2
21:23 12.8 °C 10.0 °C 1010.4 hPa Calm   2.6 km/h 83% 0.0 mm 0 W/m2
21:28 12.7 °C 9.9 °C 1010.4 hPa Calm   2.6 km/h 83% 0.0 mm 0 W/m2
21:33 12.7 °C 9.9 °C 1010.4 hPa NNW 1.1 km/h 3.5 km/h 83% 0.0 mm 0 W/m2
21:38 12.7 °C 9.9 °C 1010.7 hPa NW 1.1 km/h 3.5 km/h 83% 0.0 mm 0 W/m2
21:43 12.5 °C 9.9 °C 1010.4 hPa NNW 1.1 km/h 3.5 km/h 84% 0.0 mm 0 W/m2
21:48 12.4 °C 9.8 °C 1010.4 hPa NNW 1.1 km/h 3.5 km/h 84% 0.0 mm 0 W/m2
21:53 12.2 °C 9.8 °C 1010.4 hPa Calm   3.5 km/h 85% 0.0 mm 0 W/m2
21:58 12.1 °C 9.7 °C 1010.4 hPa Calm   2.6 km/h 85% 0.0 mm 0 W/m2
22:03 12.0 °C 9.6 °C 1010.4 hPa Calm   1.1 km/h 85% 0.0 mm 0 W/m2
22:08 11.9 °C 9.4 °C 1010.4 hPa Calm   1.1 km/h 85% 0.0 mm 0 W/m2
22:10 11.9 °C 9.4 °C 1010.0 hPa Calm   1.1 km/h 85% 0.0 mm 0 W/m2
22:15 11.8 °C 9.6 °C 1010.0 hPa Calm   1.1 km/h 86% 0.0 mm 0 W/m2
22:20 11.7 °C 9.4 °C 1010.4 hPa NNW 1.1 km/h 3.5 km/h 86% 0.0 mm 0 W/m2
22:25 11.6 °C 9.3 °C 1010.0 hPa NW 5.0 km/h 7.2 km/h 86% 0.0 mm 0 W/m2
22:30 11.6 °C 9.2 °C 1010.4 hPa NNW 5.0 km/h 8.7 km/h 85% 0.0 mm 0 W/m2
22:35 11.7 °C 9.3 °C 1010.0 hPa NNW 2.6 km/h 8.7 km/h 85% 0.0 mm 0 W/m2
22:40 11.7 °C 9.1 °C 1010.4 hPa NW 2.6 km/h 7.2 km/h 84% 0.0 mm 0 W/m2
22:45 11.7 °C 9.1 °C 1010.0 hPa NW 2.6 km/h 5.0 km/h 84% 0.0 mm 0 W/m2
22:51 11.9 °C 9.3 °C 1010.4 hPa NW 1.1 km/h 5.0 km/h 84% 0.0 mm 0 W/m2
22:56 12.0 °C 9.0 °C 1010.4 hPa NW 2.6 km/h 5.0 km/h 82% 0.0 mm 0 W/m2
23:01 12.0 °C 9.0 °C 1010.4 hPa NW 2.6 km/h 5.0 km/h 82% 0.0 mm 0 W/m2
23:06 12.0 °C 8.8 °C 1010.4 hPa NW 2.6 km/h 5.0 km/h 81% 0.0 mm 0 W/m2
23:11 12.1 °C 8.9 °C 1010.4 hPa NW 3.5 km/h 5.0 km/h 81% 0.0 mm 0 W/m2
23:16 12.1 °C 8.9 °C 1010.0 hPa NW 2.6 km/h 6.1 km/h 81% 0.0 mm 0 W/m2
23:21 12.1 °C 8.9 °C 1010.4 hPa NW 1.1 km/h 6.1 km/h 81% 0.0 mm 0 W/m2
23:26 11.9 °C 8.9 °C 1010.4 hPa Calm   5.0 km/h 82% 0.0 mm 0 W/m2
23:31 11.6 °C 8.6 °C 1010.4 hPa Calm   2.6 km/h 82% 0.0 mm 0 W/m2
23:36 11.4 °C 8.6 °C 1010.4 hPa Calm   2.6 km/h 83% 0.0 mm 0 W/m2
23:41 11.2 °C 8.6 °C 1010.0 hPa Calm   2.6 km/h 84% 0.0 mm 0 W/m2
23:46 11.2 °C 8.6 °C 1010.4 hPa Calm   2.6 km/h 84% 0.0 mm 0 W/m2
23:51 11.2 °C 8.8 °C 1010.4 hPa Calm   2.6 km/h 85% 0.0 mm 0 W/m2
23:56 11.0 °C 8.6 °C 1010.4 hPa Calm   2.6 km/h 85% 0.0 mm 0 W/m2
Northern Hawkes Bay. New Zealand Historic Data
Compliments of Weather Underground - 2 mb